Time;durP1;ratioP1;P1;durP2;ratioP2;P2;SDS_P1;SDS_P2;PMS_P1;PMS_P2;Temp;Humidity;BMP_temperature;BMP_pressure;BME280_temperature;BME280_humidity;BME280_pressure;Samples;Min_cycle;Max_cycle;Signal;HPM_P1;HPM_P2
2023/10/20 00:00:38;;;;;;;;;;;;;;;17.25;100.00;98446.53;5265189;28;19916;-72
2023/10/20 00:03:10;;;;;;;;;;;;;;;17.27;100.00;98448.94;5256954;28;19912;-72
2023/10/20 00:05:42;;;;;;;;;;;;;;;17.29;100.00;98454.03;5261440;28;20007;-72
2023/10/20 00:08:14;;;;;;;;;;;;;;;17.24;100.00;98452.88;5261433;28;19920;-72
2023/10/20 00:10:45;;;;;;;;;;;;;;;17.23;100.00;98442.50;5262402;28;19916;-71
2023/10/20 00:13:17;;;;;;;;;;;;;;;17.22;100.00;98436.41;5262830;28;19920;-71
2023/10/20 00:15:50;;;;;;;;;;;;;;;17.21;100.00;98440.09;5260191;28;19916;-71
2023/10/20 00:18:22;;;;;;;;;;;;;;;17.08;100.00;98405.94;5262863;28;19913;-71
2023/10/20 00:20:53;;;;;;;;;;;;;;;17.21;100.00;98418.94;5265519;28;20298;-71
2023/10/20 00:23:25;;;;;;;;;;;;;;;17.20;100.00;98416.53;5260227;28;19920;-72
2023/10/20 00:25:58;;;;;;;;;;;;;;;17.19;100.00;98409.59;5262689;28;19912;-71
2023/10/20 00:28:30;;;;;;;;;;;;;;;17.19;100.00;98397.19;5261952;28;19921;-72
2023/10/20 00:31:02;;;;;;;;;;;;;;;17.21;100.00;98400.41;5259440;28;20298;-71
2023/10/20 00:33:33;;;;;;;;;;;;;;;17.20;100.00;98396.16;5264124;28;19927;-72
2023/10/20 00:36:06;;;;;;;;;;;;;;;17.17;100.00;98396.63;5259646;28;19924;-71
2023/10/20 00:38:38;;;;;;;;;;;;;;;17.18;100.00;98370.97;5263309;28;20392;-71
2023/10/20 00:41:09;;;;;;;;;;;;;;;17.11;100.00;98359.69;5261640;28;19912;-71
2023/10/20 00:43:41;;;;;;;;;;;;;;;17.07;100.00;98354.06;5260995;28;19920;-72
2023/10/20 00:46:13;;;;;;;;;;;;;;;17.05;100.00;98356.16;5259756;28;20389;-71
2023/10/20 00:48:45;;;;;;;;;;;;;;;17.11;100.00;98354.41;5259570;28;19913;-71
2023/10/20 00:51:17;;;;;;;;;;;;;;;17.08;100.00;98341.66;5262730;28;19928;-72
2023/10/20 00:53:48;;;;;;;;;;;;;;;17.07;100.00;98347.97;5259535;28;19927;-72
2023/10/20 00:56:21;;;;;;;;;;;;;;;17.05;100.00;98337.66;5259209;28;19935;-72
2023/10/20 00:58:52;;;;;;;;;;;;;;;17.05;100.00;98334.16;5255370;28;19920;-72
2023/10/20 01:01:24;;;;;;;;;;;;;;;17.04;100.00;98325.44;5262581;28;19921;-72
2023/10/20 01:03:56;;;;;;;;;;;;;;;17.07;100.00;98322.31;5261705;28;19912;-72
2023/10/20 01:06:28;;;;;;;;;;;;;;;17.07;100.00;98324.16;5262561;28;19917;-72
2023/10/20 01:08:59;;;;;;;;;;;;;;;17.07;100.00;98319.69;5264079;28;19921;-71
2023/10/20 01:11:31;;;;;;;;;;;;;;;17.04;100.00;98317.50;5249999;28;20318;-71
2023/10/20 01:14:03;;;;;;;;;;;;;;;17.02;100.00;98306.38;5265150;28;19931;-71
2023/10/20 01:16:34;;;;;;;;;;;;;;;17.01;100.00;98305.56;5263867;28;19927;-72
2023/10/20 01:19:06;;;;;;;;;;;;;;;17.00;100.00;98300.50;5267073;28;19922;-71
2023/10/20 01:21:38;;;;;;;;;;;;;;;17.01;100.00;98288.91;5264167;28;19917;-72
2023/10/20 01:24:10;;;;;;;;;;;;;;;16.99;100.00;98289.09;5268895;28;19913;-71
2023/10/20 01:26:43;;;;;;;;;;;;;;;17.03;100.00;98278.88;5267669;28;19916;-72
2023/10/20 01:29:15;;;;;;;;;;;;;;;17.04;100.00;98280.47;5262318;28;20400;-71
2023/10/20 01:31:47;;;;;;;;;;;;;;;17.05;100.00;98266.22;5262702;28;19916;-71
2023/10/20 01:34:18;;;;;;;;;;;;;;;17.03;100.00;98265.63;5263097;28;19956;-71
2023/10/20 01:36:50;;;;;;;;;;;;;;;17.02;100.00;98266.69;5267354;28;19916;-72
2023/10/20 01:39:22;;;;;;;;;;;;;;;17.04;100.00;98272.53;5265601;28;19917;-71
2023/10/20 01:41:53;;;;;;;;;;;;;;;17.05;100.00;98268.88;5262798;28;19913;-71
2023/10/20 01:44:25;;;;;;;;;;;;;;;17.06;100.00;98273.13;5261920;28;19925;-72
2023/10/20 01:46:57;;;;;;;;;;;;;;;17.06;100.00;98272.31;5262744;28;19920;-72
2023/10/20 01:49:28;;;;;;;;;;;;;;;17.07;100.00;98258.03;5261833;28;19916;-72
2023/10/20 01:52:00;;;;;;;;;;;;;;;17.05;100.00;98260.94;5263231;28;19912;-71
2023/10/20 01:54:32;;;;;;;;;;;;;;;17.00;100.00;98261.63;5266914;28;19916;-71
2023/10/20 01:57:04;;;;;;;;;;;;;;;17.04;100.00;98254.00;5266623;28;19935;-72
2023/10/20 01:59:36;;;;;;;;;;;;;;;17.02;100.00;98256.09;5268099;28;19913;-71
2023/10/20 02:02:08;;;;;;;;;;;;;;;16.97;100.00;98237.47;5262585;28;20286;-71
2023/10/20 02:04:41;;;;;;;;;;;;;;;17.03;100.00;98221.47;5262839;28;19920;-71
2023/10/20 02:07:12;;;;;;;;;;;;;;;17.07;100.00;98219.16;5264909;28;20325;-72
2023/10/20 02:09:44;;;;;;;;;;;;;;;17.08;100.00;98207.53;5262023;28;19913;-72
2023/10/20 02:12:16;;;;;;;;;;;;;;;17.07;100.00;98200.66;5261000;28;20338;-71
2023/10/20 02:14:47;;;;;;;;;;;;;;;17.05;100.00;98213.31;5265419;28;19917;-71
2023/10/20 02:17:19;;;;;;;;;;;;;;;17.04;100.00;98214.34;5258289;28;19920;-71
2023/10/20 02:19:51;;;;;;;;;;;;;;;17.06;100.00;98201.69;5261879;28;20370;-71
2023/10/20 02:22:23;;;;;;;;;;;;;;;17.07;100.00;98205.94;5262015;28;19920;-72
2023/10/20 02:24:55;;;;;;;;;;;;;;;17.04;100.00;98203.75;5263245;28;19918;-71
2023/10/20 02:27:28;;;;;;;;;;;;;;;17.02;100.00;98189.97;5262484;28;19921;-71
2023/10/20 02:30:00;;;;;;;;;;;;;;;17.00;100.00;98182.25;5245717;28;19912;-71
2023/10/20 02:32:31;;;;;;;;;;;;;;;17.03;100.00;98181.78;5259817;28;19912;-72
2023/10/20 02:35:03;;;;;;;;;;;;;;;17.05;100.00;98168.34;5264440;28;20370;-71
2023/10/20 02:37:35;;;;;;;;;;;;;;;17.03;100.00;98158.00;5263633;28;19916;-71
2023/10/20 02:40:07;;;;;;;;;;;;;;;17.03;100.00;98152.69;5263398;28;20847;-72
2023/10/20 02:42:39;;;;;;;;;;;;;;;17.01;100.00;98152.16;5267801;28;19919;-72
2023/10/20 02:45:10;;;;;;;;;;;;;;;17.05;100.00;98149.84;5263646;28;19920;-72
2023/10/20 02:47:42;;;;;;;;;;;;;;;17.07;100.00;98149.59;5261071;28;19966;-72
2023/10/20 02:50:15;;;;;;;;;;;;;;;17.05;100.00;98144.53;5262762;28;20397;-71
2023/10/20 02:52:47;;;;;;;;;;;;;;;17.06;100.00;98130.28;5263506;28;20393;-72
2023/10/20 02:55:19;;;;;;;;;;;;;;;17.07;100.00;98125.78;5248196;28;19917;-71
2023/10/20 02:57:50;;;;;;;;;;;;;;;17.05;100.00;98119.91;5257311;28;19916;-72
2023/10/20 03:00:22;;;;;;;;;;;;;;;17.04;100.00;98119.13;5256166;28;20395;-71
2023/10/20 03:02:54;;;;;;;;;;;;;;;17.09;100.00;98111.28;5261644;28;19919;-72
2023/10/20 03:05:27;;;;;;;;;;;;;;;17.09;100.00;98099.91;5262351;28;19921;-72
2023/10/20 03:07:59;;;;;;;;;;;;;;;17.07;100.00;98089.53;5258397;28;19928;-72
2023/10/20 03:10:30;;;;;;;;;;;;;;;17.05;100.00;98078.41;5247855;28;19915;-72
2023/10/20 03:13:04;;;;;;;;;;;;;;;17.08;100.00;98079.75;5262806;28;20389;-72
2023/10/20 03:15:36;;;;;;;;;;;;;;;17.08;100.00;98085.84;5263867;28;19913;-72
2023/10/20 03:18:07;;;;;;;;;;;;;;;17.06;100.00;98080.00;5263635;28;19926;-72
2023/10/20 03:20:39;;;;;;;;;;;;;;;17.07;100.00;98086.91;5261176;28;19920;-72
2023/10/20 03:23:13;;;;;;;;;;;;;;;17.08;100.00;98093.78;5259069;28;19912;-72
2023/10/20 03:25:44;;;;;;;;;;;;;;;17.07;100.00;98083.47;5262664;28;19912;-72
2023/10/20 03:28:16;;;;;;;;;;;;;;;17.07;100.00;98076.31;5261389;28;19912;-72
2023/10/20 03:30:48;;;;;;;;;;;;;;;17.05;100.00;98078.41;5256325;28;20332;-72
2023/10/20 03:33:20;;;;;;;;;;;;;;;17.05;100.00;98057.25;5264025;28;19921;-72
2023/10/20 03:35:58;;;;;;;;;;;;;;;17.08;100.00;98055.94;5260407;28;20358;-72
2023/10/20 03:38:30;;;;;;;;;;;;;;;17.12;100.00;98047.31;5260256;28;20293;-72
2023/10/20 03:41:11;;;;;;;;;;;;;;;17.12;100.00;98049.97;5264568;28;20393;-72
2023/10/20 03:43:44;;;;;;;;;;;;;;;17.13;100.00;98050.75;5263964;28;19920;-71
2023/10/20 03:46:18;;;;;;;;;;;;;;;17.13;100.00;98056.06;5263729;28;19928;-72
2023/10/20 03:48:49;;;;;;;;;;;;;;;17.09;100.00;98061.03;5259841;28;19916;-72
2023/10/20 03:51:21;;;;;;;;;;;;;;;17.11;100.00;98050.19;5257798;28;19923;-72
2023/10/20 03:53:55;;;;;;;;;;;;;;;17.15;100.00;98038.88;5264734;28;19954;-72
2023/10/20 03:56:26;;;;;;;;;;;;;;;17.14;100.00;98010.03;5258699;28;19916;-71
2023/10/20 03:58:58;;;;;;;;;;;;;;;17.13;100.00;98026.94;5261158;28;19916;-72
2023/10/20 04:01:30;;;;;;;;;;;;;;;17.10;100.00;98030.06;5261018;28;20330;-72
2023/10/20 04:04:01;;;;;;;;;;;;;;;17.10;100.00;98030.06;5242664;28;19917;-71
2023/10/20 04:06:33;;;;;;;;;;;;;;;17.09;100.00;98024.00;5260754;28;19913;-72
2023/10/20 04:09:09;;;;;;;;;;;;;;;17.10;100.00;98020.28;5261460;28;19920;-71
2023/10/20 04:11:41;;;;;;;;;;;;;;;17.07;100.00;98006.75;5262773;28;19927;-71
2023/10/20 04:14:12;;;;;;;;;;;;;;;17.07;100.00;97998.81;5246418;28;19917;-72
2023/10/20 04:16:45;;;;;;;;;;;;;;;17.00;100.00;97999.75;5259618;28;19923;-72
2023/10/20 04:19:17;;;;;;;;;;;;;;;17.03;100.00;97987.91;5257843;28;19913;-72
2023/10/20 04:21:48;;;;;;;;;;;;;;;17.01;100.00;97990.00;5256370;28;19919;-71
2023/10/20 04:24:21;;;;;;;;;;;;;;;17.01;100.00;97976.78;5260741;28;20397;-72
2023/10/20 04:26:55;;;;;;;;;;;;;;;17.00;100.00;97972.53;5264509;28;19920;-72
2023/10/20 04:29:34;;;;;;;;;;;;;;;17.08;100.00;97966.03;5260405;28;19924;-72
2023/10/20 04:44:19;;;;;;;;;;;;;;;17.03;100.00;97946.38;5262013;28;19920;-71
2023/10/20 04:52:17;;;;;;;;;;;;;;;17.01;100.00;97908.03;5266851;28;19921;-71
2023/10/20 04:56:01;;;;;;;;;;;;;;;17.00;100.00;97909.84;5268272;28;20281;-71
2023/10/20 04:57:53;;;;;;;;;;;;;;;17.03;100.00;97905.91;5263732;28;19920;-71
2023/10/20 05:03:12;;;;;;;;;;;;;;;17.00;100.00;97887.88;5266177;28;20027;-70
2023/10/20 05:05:53;;;;;;;;;;;;;;;16.99;100.00;97875.72;5267307;28;19917;-71
2023/10/20 05:08:25;;;;;;;;;;;;;;;16.99;100.00;97876.50;5264390;28;19920;-71
2023/10/20 05:10:57;;;;;;;;;;;;;;;16.93;100.00;97872.22;5264631;28;19920;-71
2023/10/20 05:13:28;;;;;;;;;;;;;;;16.98;100.00;97863.53;5263720;28;20007;-71
2023/10/20 05:16:00;;;;;;;;;;;;;;;16.94;100.00;97873.00;5264896;28;19913;-71
2023/10/20 05:18:33;;;;;;;;;;;;;;;16.94;100.00;97867.72;5268520;28;20283;-71
2023/10/20 05:21:08;;;;;;;;;;;;;;;16.94;100.00;97857.16;5261238;28;19923;-71
2023/10/20 05:23:40;;;;;;;;;;;;;;;16.93;100.00;97848.41;5268439;28;20629;-71
2023/10/20 05:26:13;;;;;;;;;;;;;;;17.01;100.00;97842.69;5266251;28;19924;-71
2023/10/20 05:28:45;;;;;;;;;;;;;;;17.01;100.00;97847.19;5260578;28;20365;-71
2023/10/20 05:31:21;;;;;;;;;;;;;;;17.01;100.00;97844.53;5259668;28;19916;-72
2023/10/20 05:33:53;;;;;;;;;;;;;;;17.03;100.00;97853.03;5255936;28;19952;-72
2023/10/20 05:36:25;;;;;;;;;;;;;;;17.05;100.00;97861.53;5260418;28;19917;-72
2023/10/20 05:38:56;;;;;;;;;;;;;;;17.04;100.00;97862.53;5262808;28;20283;-72
2023/10/20 05:41:29;;;;;;;;;;;;;;;16.98;100.00;97868.84;5262128;28;19921;-72
2023/10/20 05:44:01;;;;;;;;;;;;;;;17.01;100.00;97868.34;5264641;28;19921;-72
2023/10/20 05:46:37;;;;;;;;;;;;;;;17.02;100.00;97849.56;5264766;28;19928;-72
2023/10/20 05:49:09;;;;;;;;;;;;;;;16.99;100.00;97849.28;5262178;28;20408;-72
2023/10/20 05:51:40;;;;;;;;;;;;;;;17.00;100.00;97849.00;5260422;28;19916;-72
2023/10/20 05:54:12;;;;;;;;;;;;;;;16.99;100.00;97844.78;5253525;28;19921;-72
2023/10/20 05:56:44;;;;;;;;;;;;;;;17.03;100.00;97848.53;5256644;28;20396;-72
2023/10/20 05:59:15;;;;;;;;;;;;;;;17.03;100.00;97837.16;5255152;28;19917;-73
2023/10/20 06:01:47;;;;;;;;;;;;;;;17.01;100.00;97832.13;5254735;28;19927;-72
2023/10/20 06:04:20;;;;;;;;;;;;;;;16.99;100.00;97831.56;5254071;28;20290;-72
2023/10/20 06:06:52;;;;;;;;;;;;;;;17.00;100.00;97827.06;5261576;28;19916;-72
2023/10/20 06:09:25;;;;;;;;;;;;;;;17.00;100.00;97827.84;5256795;28;19921;-72
2023/10/20 06:11:56;;;;;;;;;;;;;;;16.96;100.00;97816.16;5254433;28;19912;-72
2023/10/20 06:14:28;;;;;;;;;;;;;;;16.99;100.00;97820.19;5254272;28;20366;-72
2023/10/20 06:17:00;;;;;;;;;;;;;;;16.98;100.00;97837.09;5254990;28;19916;-72
2023/10/20 06:19:32;;;;;;;;;;;;;;;16.94;100.00;97834.13;5255559;28;20305;-72
2023/10/20 06:22:05;;;;;;;;;;;;;;;16.89;100.00;97852.56;5255992;28;19913;-72
2023/10/20 06:24:37;;;;;;;;;;;;;;;16.86;100.00;97834.56;5256458;28;19923;-72
2023/10/20 06:27:09;;;;;;;;;;;;;;;16.88;100.00;97813.16;5256639;28;20267;-72
2023/10/20 06:34:47;;;;;;;;;;;;;;;16.89;100.00;97814.75;5253470;28;19917;-72
2023/10/20 06:37:29;;;;;;;;;;;;;;;16.92;100.00;97827.47;5255140;28;19916;-72
2023/10/20 06:40:03;;;;;;;;;;;;;;;16.92;100.00;97833.56;5253122;28;19913;-70
2023/10/20 06:42:35;;;;;;;;;;;;;;;16.92;100.00;97836.22;5254654;28;19920;-71
2023/10/20 06:45:07;;;;;;;;;;;;;;;16.88;100.00;97831.66;5250130;28;19935;-71
2023/10/20 06:47:42;;;;;;;;;;;;;;;16.92;100.00;97822.19;5253628;28;19943;-70
2023/10/20 06:50:14;;;;;;;;;;;;;;;16.94;100.00;97809.53;5248899;28;20609;-70
2023/10/20 06:52:45;;;;;;;;;;;;;;;16.93;100.00;97815.84;5250264;28;19912;-70
2023/10/20 06:55:17;;;;;;;;;;;;;;;16.94;100.00;97817.47;5254035;28;19917;-70
2023/10/20 06:57:49;;;;;;;;;;;;;;;16.88;100.00;97805.22;5251430;28;20277;-70
2023/10/20 07:00:20;;;;;;;;;;;;;;;16.87;100.00;97814.22;5251531;28;19912;-70
2023/10/20 07:02:52;;;;;;;;;;;;;;;16.87;100.00;97809.72;5255313;28;19912;-71
2023/10/20 07:05:24;;;;;;;;;;;;;;;16.85;100.00;97806.50;5256312;28;19996;-71
2023/10/20 07:07:56;;;;;;;;;;;;;;;16.88;100.00;97807.88;5253195;28;19908;-71
2023/10/20 07:10:27;;;;;;;;;;;;;;;16.90;100.00;97805.78;5255381;28;19920;-71
2023/10/20 07:13:00;;;;;;;;;;;;;;;16.85;100.00;97805.72;5248538;28;19939;-71
2023/10/20 07:15:33;;;;;;;;;;;;;;;16.85;100.00;97800.41;5249501;28;19916;-70
2023/10/20 07:18:05;;;;;;;;;;;;;;;16.84;100.00;97796.97;5252838;28;19921;-70
2023/10/20 07:20:38;;;;;;;;;;;;;;;16.86;100.00;97802.00;5253957;28;20286;-71
2023/10/20 07:23:10;;;;;;;;;;;;;;;16.89;100.00;97804.16;5252849;28;20299;-71
2023/10/20 07:25:42;;;;;;;;;;;;;;;16.88;100.00;97795.44;5248635;28;19916;-71
2023/10/20 07:28:14;;;;;;;;;;;;;;;16.84;100.00;97801.47;5245958;28;19918;-71
2023/10/20 07:30:46;;;;;;;;;;;;;;;16.90;100.00;97800.50;5246565;28;21703;-71
2023/10/20 07:33:18;;;;;;;;;;;;;;;16.87;100.00;97798.34;5248568;28;19920;-71
2023/10/20 07:35:49;;;;;;;;;;;;;;;16.88;100.00;97797.28;5254250;28;19916;-71
2023/10/20 07:38:21;;;;;;;;;;;;;;;16.80;100.00;97781.84;5249984;28;20282;-71
2023/10/20 07:40:53;;;;;;;;;;;;;;;16.89;100.00;97786.47;5252332;28;19916;-71
2023/10/20 07:43:24;;;;;;;;;;;;;;;16.94;100.00;97785.75;5250400;28;19916;-71
2023/10/20 07:45:56;;;;;;;;;;;;;;;16.96;100.00;97788.94;5254115;28;20554;-71
2023/10/20 07:48:28;;;;;;;;;;;;;;;16.94;100.00;97783.09;5253724;28;19921;-71
2023/10/20 07:51:00;;;;;;;;;;;;;;;16.85;100.00;97774.78;5251415;28;19921;-71
2023/10/20 07:53:31;;;;;;;;;;;;;;;16.92;100.00;97775.41;5250230;28;20424;-71
2023/10/20 07:56:03;;;;;;;;;;;;;;;16.90;100.00;97768.78;5251416;28;19929;-71
2023/10/20 07:58:35;;;;;;;;;;;;;;;16.91;100.00;97757.13;5246129;28;20370;-71
2023/10/20 08:01:07;;;;;;;;;;;;;;;16.92;100.00;97754.25;5252569;28;19994;-70
2023/10/20 08:03:42;;;;;;;;;;;;;;;16.87;100.00;97748.09;5252180;28;20472;-71
2023/10/20 08:06:14;;;;;;;;;;;;;;;16.87;100.00;97759.47;5253674;28;19999;-71
2023/10/20 08:08:46;;;;;;;;;;;;;;;16.86;100.00;97760.53;5251741;28;20141;-71
2023/10/20 08:11:17;;;;;;;;;;;;;;;16.86;100.00;97744.66;5250266;28;20338;-70
2023/10/20 08:13:52;;;;;;;;;;;;;;;16.89;100.00;97759.22;5253693;28;20377;-70
2023/10/20 08:16:24;;;;;;;;;;;;;;;16.89;100.00;97764.50;5250472;28;19923;-70
2023/10/20 08:18:56;;;;;;;;;;;;;;;16.86;100.00;97757.88;5247153;28;19928;-70
2023/10/20 08:21:29;;;;;;;;;;;;;;;16.80;100.00;97761.50;5245451;28;19917;-70
2023/10/20 08:24:02;;;;;;;;;;;;;;;16.78;100.00;97751.19;5247028;28;19928;-70
2023/10/20 08:26:34;;;;;;;;;;;;;;;16.85;100.00;97750.19;5250517;28;19916;-71
2023/10/20 08:29:06;;;;;;;;;;;;;;;16.84;100.00;97753.88;5244934;28;20366;-71
2023/10/20 08:31:38;;;;;;;;;;;;;;;16.80;100.00;97766.00;5251062;28;19917;-70
2023/10/20 08:34:10;;;;;;;;;;;;;;;16.77;100.00;97760.13;5245667;28;19951;-71
2023/10/20 08:36:42;;;;;;;;;;;;;;;16.77;100.00;97767.28;5245281;28;19917;-71
2023/10/20 08:39:13;;;;;;;;;;;;;;;16.78;100.00;97760.94;5247247;28;19941;-70
2023/10/20 08:41:45;;;;;;;;;;;;;;;16.72;100.00;97765.34;5246443;28;20293;-70
2023/10/20 08:44:17;;;;;;;;;;;;;;;16.75;100.00;97754.31;5248923;28;19924;-71
2023/10/20 08:46:51;;;;;;;;;;;;;;;16.72;100.00;97754.75;5247621;28;20050;-71
2023/10/20 08:49:23;;;;;;;;;;;;;;;16.74;100.00;97754.53;5244851;28;19924;-70
2023/10/20 08:51:55;;;;;;;;;;;;;;;16.73;100.00;97755.56;5238874;28;19924;-70
2023/10/20 08:54:27;;;;;;;;;;;;;;;16.72;100.00;97753.97;5240135;28;19923;-71
2023/10/20 08:56:59;;;;;;;;;;;;;;;16.73;100.00;97759.03;5248370;28;19920;-71
2023/10/20 08:59:35;;;;;;;;;;;;;;;16.74;100.00;97755.38;5252553;28;19917;-70
2023/10/20 09:02:08;;;;;;;;;;;;;;;16.73;100.00;97748.47;5253596;28;20373;-71
2023/10/20 09:04:40;;;;;;;;;;;;;;;16.71;100.00;97747.88;5250328;28;19921;-70
2023/10/20 09:07:15;;;;;;;;;;;;;;;16.72;100.00;97751.31;5246059;28;19923;-70
2023/10/20 09:09:47;;;;;;;;;;;;;;;16.75;100.00;97751.66;5242704;28;20282;-71
2023/10/20 09:12:18;;;;;;;;;;;;;;;16.69;100.00;97751.81;5247199;28;19927;-70
2023/10/20 09:14:50;;;;;;;;;;;;;;;16.69;100.00;97752.59;5241297;28;19927;-70
2023/10/20 09:17:22;;;;;;;;;;;;;;;16.63;100.00;97756.25;5250748;28;19936;-70
2023/10/20 09:20:03;;;;;;;;;;;;;;;16.62;100.00;97748.53;5250784;28;19928;-71
2023/10/20 09:22:36;;;;;;;;;;;;;;;16.60;100.00;97748.00;5244076;28;20539;-71
2023/10/20 09:25:11;;;;;;;;;;;;;;;16.59;100.00;97733.97;5250670;28;19921;-70
2023/10/20 09:27:43;;;;;;;;;;;;;;;16.57;100.00;97730.00;5248641;28;19923;-71
2023/10/20 09:30:15;;;;;;;;;;;;;;;16.58;100.00;97731.59;5251098;28;19936;-71
2023/10/20 09:32:47;;;;;;;;;;;;;;;16.51;100.00;97735.19;5254399;28;19920;-71
2023/10/20 09:35:19;;;;;;;;;;;;;;;16.50;100.00;97741.53;5257233;28;19916;-70
2023/10/20 09:37:53;;;;;;;;;;;;;;;16.47;100.00;97746.50;5252635;28;19935;-70
2023/10/20 09:40:25;;;;;;;;;;;;;;;16.44;100.00;97733.78;5244081;28;20319;-70
2023/10/20 09:43:11;;;;;;;;;;;;;;;16.44;100.00;97731.13;5250589;28;19944;-71
2023/10/20 09:45:47;;;;;;;;;;;;;;;16.41;100.00;97737.72;5250492;28;19916;-71
2023/10/20 09:48:19;;;;;;;;;;;;;;;16.38;100.00;97732.13;5252533;28;19932;-70
2023/10/20 09:50:51;;;;;;;;;;;;;;;16.37;100.00;97738.47;5251419;28;19927;-71
2023/10/20 09:53:23;;;;;;;;;;;;;;;16.36;100.00;97731.56;5252952;28;20316;-71
2023/10/20 09:55:55;;;;;;;;;;;;;;;16.28;100.00;97725.63;5248460;28;20290;-71
2023/10/20 09:58:32;;;;;;;;;;;;;;;16.29;100.00;97719.34;5253276;28;19921;-71
2023/10/20 10:01:05;;;;;;;;;;;;;;;16.25;100.00;97723.50;5254698;28;20638;-70
2023/10/20 10:03:40;;;;;;;;;;;;;;;16.25;100.00;97723.50;5256829;28;19916;-70
2023/10/20 10:06:16;;;;;;;;;;;;;;;16.25;100.00;97731.44;5254777;28;19923;-71
2023/10/20 10:08:47;;;;;;;;;;;;;;;16.25;100.00;97734.06;5249996;28;20516;-70
2023/10/20 10:11:19;;;;;;;;;;;;;;;16.27;100.00;97731.19;5248256;28;20279;-71
2023/10/20 10:13:54;;;;;;;;;;;;;;;16.25;100.00;97727.97;5246302;28;20003;-71
2023/10/20 10:16:27;;;;;;;;;;;;;;;16.25;100.00;97723.50;5256714;28;19912;-71
2023/10/20 10:19:08;;;;;;;;;;;;;;;16.25;100.00;97712.94;5249904;28;19928;-71
2023/10/20 10:21:40;;;;;;;;;;;;;;;16.24;100.00;97718.44;5256445;28;19920;-70
2023/10/20 10:24:13;;;;;;;;;;;;;;;16.23;100.00;97717.66;5253254;28;19916;-70
2023/10/20 10:26:52;;;;;;;;;;;;;;;16.23;100.00;97709.72;5250968;28;19923;-70
2023/10/20 10:29:42;;;;;;;;;;;;;;;16.23;100.00;97712.38;5252855;28;19919;-70
2023/10/20 10:32:14;;;;;;;;;;;;;;;16.25;100.00;97707.66;5255176;28;19917;-70
2023/10/20 10:34:47;;;;;;;;;;;;;;;16.32;100.00;97707.47;5251280;28;20298;-70
2023/10/20 10:37:48;;;;;;;;;;;;;;;16.33;100.00;97700.31;5246079;28;20566;-70
2023/10/20 10:40:22;;;;;;;;;;;;;;;16.32;100.00;97696.09;5233418;28;19936;-70
2023/10/20 10:42:54;;;;;;;;;;;;;;;16.38;100.00;97695.94;5253833;28;19924;-71
2023/10/20 10:45:36;;;;;;;;;;;;;;;16.40;100.00;97688.56;5254229;28;19920;-70
2023/10/20 10:48:08;;;;;;;;;;;;;;;16.38;100.00;97684.56;5245059;28;19920;-70
2023/10/20 10:50:41;;;;;;;;;;;;;;;16.43;100.00;97682.78;5252076;28;20283;-70
2023/10/20 10:53:13;;;;;;;;;;;;;;;16.45;100.00;97667.50;5253460;28;19913;-70
2023/10/20 10:55:45;;;;;;;;;;;;;;;16.45;100.00;97678.06;5244039;28;19924;-70
2023/10/20 10:58:16;;;;;;;;;;;;;;;16.47;100.00;97667.22;5251341;28;20364;-70
2023/10/20 11:00:48;;;;;;;;;;;;;;;16.51;100.00;97660.41;5245344;28;20515;-70
2023/10/20 11:03:21;;;;;;;;;;;;;;;16.47;100.00;97656.66;5242671;28;19925;-70
2023/10/20 11:05:52;;;;;;;;;;;;;;;16.47;100.00;97646.09;5244621;28;20408;-71
2023/10/20 11:08:27;;;;;;;;;;;;;;;16.50;100.00;97640.31;5245931;28;19920;-71
2023/10/20 11:10:59;;;;;;;;;;;;;;;16.45;100.00;97640.28;5250158;28;19916;-70
2023/10/20 11:13:32;;;;;;;;;;;;;;;16.52;100.00;97649.59;5245831;28;19986;-71
2023/10/20 11:16:04;;;;;;;;;;;;;;;16.50;100.00;97646.41;5248041;28;19917;-70
2023/10/20 11:18:36;;;;;;;;;;;;;;;16.59;100.00;97632.75;5248117;28;19917;-70
2023/10/20 11:21:10;;;;;;;;;;;;;;;16.61;100.00;97630.66;5249536;28;20411;-70
2023/10/20 11:23:47;;;;;;;;;;;;;;;16.64;100.00;97625.69;5244728;28;19923;-71
2023/10/20 11:26:21;;;;;;;;;;;;;;;16.63;100.00;97620.63;5250460;28;19913;-71
2023/10/20 11:28:52;;;;;;;;;;;;;;;16.57;100.00;97627.72;5247319;28;19916;-70
2023/10/20 11:31:24;;;;;;;;;;;;;;;16.61;100.00;97623.53;5253919;28;20208;-70
2023/10/20 11:33:56;;;;;;;;;;;;;;;16.65;100.00;97615.91;5255789;28;20359;-70
2023/10/20 11:36:27;;;;;;;;;;;;;;;16.66;100.00;97615.66;5254501;28;20592;-70
2023/10/20 11:39:00;;;;;;;;;;;;;;;16.70;100.00;97608.03;5253527;28;20020;-70
2023/10/20 11:41:31;;;;;;;;;;;;;;;16.71;100.00;97607.00;5250721;28;19916;-70
2023/10/20 11:44:03;;;;;;;;;;;;;;;16.71;100.00;97607.78;5250194;28;20314;-70
2023/10/20 11:46:35;;;;;;;;;;;;;;;16.76;100.00;97610.50;5245276;28;19916;-70
2023/10/20 11:49:07;;;;;;;;;;;;;;;16.80;100.00;97604.72;5254306;28;20393;-70
2023/10/20 11:51:39;;;;;;;;;;;;;;;16.87;100.00;97586.81;5245219;28;19923;-70
2023/10/20 11:54:12;;;;;;;;;;;;;;;16.91;100.00;97590.56;5248105;28;20302;-71
2023/10/20 11:56:44;;;;;;;;;;;;;;;16.91;100.00;97583.41;5259046;28;19916;-70
2023/10/20 11:59:16;;;;;;;;;;;;;;;16.93;100.00;97591.91;5252593;28;20305;-70
2023/10/20 12:01:47;;;;;;;;;;;;;;;16.94;100.00;97590.84;5254385;28;19921;-70
2023/10/20 12:04:19;;;;;;;;;;;;;;;16.92;100.00;97582.34;5257395;28;19916;-71
2023/10/20 12:06:51;;;;;;;;;;;;;;;16.93;100.00;97575.22;5254977;28;19920;-70
2023/10/20 12:09:23;;;;;;;;;;;;;;;16.91;100.00;97561.47;5248748;28;19924;-70
2023/10/20 12:11:55;;;;;;;;;;;;;;;16.87;100.00;97574.38;5255456;28;19919;-70
2023/10/20 12:14:27;;;;;;;;;;;;;;;16.89;100.00;97582.84;5257453;28;20302;-70
2023/10/20 12:16:58;;;;;;;;;;;;;;;16.86;100.00;97587.84;5257585;28;19927;-70
2023/10/20 12:19:30;;;;;;;;;;;;;;;16.95;100.00;97575.78;5256316;28;19932;-70
2023/10/20 12:22:02;;;;;;;;;;;;;;;16.95;100.00;97584.50;5248269;28;20372;-70
2023/10/20 12:24:35;;;;;;;;;;;;;;;16.90;100.00;97586.31;5258691;28;19924;-70
2023/10/20 12:27:08;;;;;;;;;;;;;;;16.96;100.00;97572.88;5259481;28;19946;-71
2023/10/20 12:29:40;;;;;;;;;;;;;;;16.94;100.00;97577.63;5257101;28;19919;-71
2023/10/20 12:32:12;;;;;;;;;;;;;;;16.95;100.00;97581.88;5253402;28;19959;-71
2023/10/20 12:34:44;;;;;;;;;;;;;;;16.91;100.00;97577.34;5251976;28;19920;-70
2023/10/20 12:37:16;;;;;;;;;;;;;;;16.92;100.00;97569.13;5258187;28;19912;-70
2023/10/20 12:39:50;;;;;;;;;;;;;;;16.88;100.00;97567.25;5252838;28;21200;-71
2023/10/20 12:42:22;;;;;;;;;;;;;;;16.84;100.00;97563.53;5253926;28;19916;-70
2023/10/20 12:44:54;;;;;;;;;;;;;;;16.81;100.00;97566.66;5259992;28;20321;-70
2023/10/20 12:47:26;;;;;;;;;;;;;;;16.82;100.00;97569.06;5242996;28;20366;-70
2023/10/20 12:49:58;;;;;;;;;;;;;;;16.83;100.00;97575.94;5250387;28;20021;-71
2023/10/20 12:52:29;;;;;;;;;;;;;;;16.86;100.00;97583.38;5261637;28;19956;-70
2023/10/20 12:55:01;;;;;;;;;;;;;;;16.89;100.00;97590.00;5258854;28;19916;-70
2023/10/20 12:57:33;;;;;;;;;;;;;;;16.92;100.00;97597.44;5235401;28;20046;-70
2023/10/20 13:00:05;;;;;;;;;;;;;;;16.95;100.00;97610.94;5260014;28;20267;-70
2023/10/20 13:02:36;;;;;;;;;;;;;;;16.92;100.00;97639.75;5254605;28;19916;-71
2023/10/20 13:05:09;;;;;;;;;;;;;;;16.90;100.00;97660.34;5264642;28;20484;-71
2023/10/20 13:07:41;;;;;;;;;;;;;;;16.90;100.00;97655.06;5265162;28;19916;-71
2023/10/20 13:10:13;;;;;;;;;;;;;;;16.93;100.00;97659.84;5259816;28;20037;-71
2023/10/20 13:12:44;;;;;;;;;;;;;;;16.89;100.00;97643.66;5261116;28;20346;-71
2023/10/20 13:15:19;;;;;;;;;;;;;;;16.92;100.00;97648.47;5260879;28;20382;-71
2023/10/20 13:17:50;;;;;;;;;;;;;;;16.98;100.00;97657.25;5260249;28;19924;-72
2023/10/20 13:20:22;;;;;;;;;;;;;;;17.02;100.00;97653.06;5260561;28;20473;-70
2023/10/20 13:22:54;;;;;;;;;;;;;;;17.07;100.00;97666.34;5262038;28;20059;-70
2023/10/20 13:25:27;;;;;;;;;;;;;;;17.11;100.00;97662.13;5265390;28;19912;-70
2023/10/20 13:27:59;;;;;;;;;;;;;;;17.18;100.00;97673.31;5259410;28;19917;-70